sensor_id;sensor_type;location;lat;lon;timestamp;pressure;altitude;pressure_sealevel;temperature;humidity
65718;BME280;52445;52.466;-1.016;2024-01-27T00:00:10;101839.56;;;4.21;71.25
65718;BME280;52445;52.466;-1.016;2024-01-27T00:02:38;101830.19;;;4.21;71.04
65718;BME280;52445;52.466;-1.016;2024-01-27T00:05:06;101837.78;;;4.20;71.13
65718;BME280;52445;52.466;-1.016;2024-01-27T00:07:36;101830.75;;;4.16;71.71
65718;BME280;52445;52.466;-1.016;2024-01-27T00:10:03;101834.13;;;4.15;71.81
65718;BME280;52445;52.466;-1.016;2024-01-27T00:12:29;101826.34;;;4.13;70.96
65718;BME280;52445;52.466;-1.016;2024-01-27T00:14:56;101826.91;;;4.07;71.76
65718;BME280;52445;52.466;-1.016;2024-01-27T00:17:23;101826.91;;;4.07;71.91
65718;BME280;52445;52.466;-1.016;2024-01-27T00:19:51;101836.09;;;4.04;72.04
65718;BME280;52445;52.466;-1.016;2024-01-27T00:22:18;101840.38;;;4.03;72.15
65718;BME280;52445;52.466;-1.016;2024-01-27T00:24:47;101840.19;;;4.00;72.15
65718;BME280;52445;52.466;-1.016;2024-01-27T00:27:14;101831.53;;;3.98;71.74
65718;BME280;52445;52.466;-1.016;2024-01-27T00:29:43;101828.88;;;3.96;71.97
65718;BME280;52445;52.466;-1.016;2024-01-27T00:32:09;101829.59;;;3.94;72.27
65718;BME280;52445;52.466;-1.016;2024-01-27T00:34:36;101829.28;;;3.88;72.14
65718;BME280;52445;52.466;-1.016;2024-01-27T00:37:04;101837.06;;;3.89;72.03
65718;BME280;52445;52.466;-1.016;2024-01-27T00:39:32;101832.41;;;3.82;72.69
65718;BME280;52445;52.466;-1.016;2024-01-27T00:41:59;101836.63;;;3.81;72.00
65718;BME280;52445;52.466;-1.016;2024-01-27T00:44:26;101841.69;;;3.80;72.44
65718;BME280;52445;52.466;-1.016;2024-01-27T00:46:52;101833.13;;;3.79;71.96
65718;BME280;52445;52.466;-1.016;2024-01-27T00:49:19;101835.34;;;3.73;72.58
65718;BME280;52445;52.466;-1.016;2024-01-27T00:51:47;101827.66;;;3.73;72.66
65718;BME280;52445;52.466;-1.016;2024-01-27T00:54:13;101824.03;;;3.69;72.68
65718;BME280;52445;52.466;-1.016;2024-01-27T00:56:40;101821.41;;;3.68;72.87
65718;BME280;52445;52.466;-1.016;2024-01-27T00:59:08;101825.56;;;3.66;72.34
65718;BME280;52445;52.466;-1.016;2024-01-27T01:01:35;101824.44;;;3.60;72.46
65718;BME280;52445;52.466;-1.016;2024-01-27T01:04:01;101827.84;;;3.61;73.15
65718;BME280;52445;52.466;-1.016;2024-01-27T01:06:28;101820.88;;;3.58;73.21
65718;BME280;52445;52.466;-1.016;2024-01-27T01:08:55;101824.25;;;3.57;73.39
65718;BME280;52445;52.466;-1.016;2024-01-27T01:11:22;101823.38;;;3.57;72.71
65718;BME280;52445;52.466;-1.016;2024-01-27T01:13:50;101827.63;;;3.56;72.99
65718;BME280;52445;52.466;-1.016;2024-01-27T01:16:17;101821.44;;;3.53;73.35
65718;BME280;52445;52.466;-1.016;2024-01-27T01:18:44;101826.56;;;3.53;73.18
65718;BME280;52445;52.466;-1.016;2024-01-27T01:21:12;101826.47;;;3.51;72.96
65718;BME280;52445;52.466;-1.016;2024-01-27T01:23:39;101825.53;;;3.49;73.24
65718;BME280;52445;52.466;-1.016;2024-01-27T01:26:06;101816.00;;;3.46;73.29
65718;BME280;52445;52.466;-1.016;2024-01-27T01:28:32;101815.09;;;3.46;73.17
65718;BME280;52445;52.466;-1.016;2024-01-27T01:30:59;101806.44;;;3.44;73.49
65718;BME280;52445;52.466;-1.016;2024-01-27T01:33:27;101802.13;;;3.43;73.56
65718;BME280;52445;52.466;-1.016;2024-01-27T01:35:54;101802.03;;;3.41;73.07
65718;BME280;52445;52.466;-1.016;2024-01-27T01:38:21;101801.78;;;3.37;73.29
65718;BME280;52445;52.466;-1.016;2024-01-27T01:40:48;101802.75;;;3.39;73.38
65718;BME280;52445;52.466;-1.016;2024-01-27T01:43:14;101799.25;;;3.37;73.13
65718;BME280;52445;52.466;-1.016;2024-01-27T01:45:42;101798.34;;;3.36;73.10
65718;BME280;52445;52.466;-1.016;2024-01-27T01:48:10;101800.00;;;3.36;72.83
65718;BME280;52445;52.466;-1.016;2024-01-27T01:50:40;101804.19;;;3.33;73.31
65718;BME280;52445;52.466;-1.016;2024-01-27T01:53:07;101797.28;;;3.32;73.50
65718;BME280;52445;52.466;-1.016;2024-01-27T01:55:34;101794.66;;;3.31;73.53
65718;BME280;52445;52.466;-1.016;2024-01-27T01:58:01;101789.34;;;3.28;73.46
65718;BME280;52445;52.466;-1.016;2024-01-27T02:00:28;101805.59;;;3.28;73.63
65718;BME280;52445;52.466;-1.016;2024-01-27T02:02:55;101793.41;;;3.24;73.37
65718;BME280;52445;52.466;-1.016;2024-01-27T02:05:22;101798.53;;;3.24;73.56
65718;BME280;52445;52.466;-1.016;2024-01-27T02:07:49;101801.91;;;3.23;73.34
65718;BME280;52445;52.466;-1.016;2024-01-27T02:10:17;101800.13;;;3.22;73.65
65718;BME280;52445;52.466;-1.016;2024-01-27T02:12:44;101796.59;;;3.20;73.59
65718;BME280;52445;52.466;-1.016;2024-01-27T02:15:12;101805.09;;;3.19;73.56
65718;BME280;52445;52.466;-1.016;2024-01-27T02:17:40;101795.56;;;3.16;74.09
65718;BME280;52445;52.466;-1.016;2024-01-27T02:20:08;101798.13;;;3.16;73.84
65718;BME280;52445;52.466;-1.016;2024-01-27T02:22:35;101796.28;;;3.14;73.71
65718;BME280;52445;52.466;-1.016;2024-01-27T02:25:03;101796.28;;;3.14;73.58
65718;BME280;52445;52.466;-1.016;2024-01-27T02:27:30;101797.03;;;3.13;73.48
65718;BME280;52445;52.466;-1.016;2024-01-27T02:29:56;101797.84;;;3.12;74.50
65718;BME280;52445;52.466;-1.016;2024-01-27T02:32:23;101798.75;;;3.12;74.16
65718;BME280;52445;52.466;-1.016;2024-01-27T02:34:50;101796.91;;;3.10;74.37
65718;BME280;52445;52.466;-1.016;2024-01-27T02:37:18;101789.22;;;3.10;74.22
65718;BME280;52445;52.466;-1.016;2024-01-27T02:39:45;101791.69;;;3.08;74.56
65718;BME280;52445;52.466;-1.016;2024-01-27T02:42:11;101800.22;;;3.08;73.72
65718;BME280;52445;52.466;-1.016;2024-01-27T02:44:38;101806.16;;;3.07;74.24
65718;BME280;52445;52.466;-1.016;2024-01-27T02:47:05;101801.03;;;3.07;73.88
65718;BME280;52445;52.466;-1.016;2024-01-27T02:49:31;101802.66;;;3.05;74.90
65718;BME280;52445;52.466;-1.016;2024-01-27T02:51:58;101799.09;;;3.03;73.95
65718;BME280;52445;52.466;-1.016;2024-01-27T02:54:25;101805.03;;;3.02;74.51
65718;BME280;52445;52.466;-1.016;2024-01-27T02:56:54;101803.31;;;3.03;74.90
65718;BME280;52445;52.466;-1.016;2024-01-27T02:59:20;101800.00;;;3.04;75.04
65718;BME280;52445;52.466;-1.016;2024-01-27T03:01:47;101792.41;;;3.05;74.91
65718;BME280;52445;52.466;-1.016;2024-01-27T03:04:14;101790.63;;;3.04;74.35
65718;BME280;52445;52.466;-1.016;2024-01-27T03:06:41;101776.06;;;3.03;75.10
65718;BME280;52445;52.466;-1.016;2024-01-27T03:09:08;101783.75;;;3.03;75.15
65718;BME280;52445;52.466;-1.016;2024-01-27T03:11:34;101782.94;;;3.04;74.95
65718;BME280;52445;52.466;-1.016;2024-01-27T03:14:01;101784.63;;;3.04;74.72
65718;BME280;52445;52.466;-1.016;2024-01-27T03:16:28;101785.50;;;3.04;74.75
65718;BME280;52445;52.466;-1.016;2024-01-27T03:18:54;101776.69;;;2.99;75.26
65718;BME280;52445;52.466;-1.016;2024-01-27T03:21:21;101779.59;;;3.05;75.10
65718;BME280;52445;52.466;-1.016;2024-01-27T03:23:48;101778.63;;;3.03;75.19
65718;BME280;52445;52.466;-1.016;2024-01-27T03:26:15;101766.63;;;3.02;74.52
65718;BME280;52445;52.466;-1.016;2024-01-27T03:28:42;101781.19;;;3.03;74.29
65718;BME280;52445;52.466;-1.016;2024-01-27T03:31:08;101785.50;;;3.04;74.83
65718;BME280;52445;52.466;-1.016;2024-01-27T03:33:35;101795.75;;;3.04;74.61
65718;BME280;52445;52.466;-1.016;2024-01-27T03:36:02;101804.41;;;3.06;74.67
65718;BME280;52445;52.466;-1.016;2024-01-27T03:38:29;101806.06;;;3.06;74.42
65718;BME280;52445;52.466;-1.016;2024-01-27T03:40:56;101816.41;;;3.07;74.74
65718;BME280;52445;52.466;-1.016;2024-01-27T03:43:24;101814.66;;;3.06;74.51
65718;BME280;52445;52.466;-1.016;2024-01-27T03:45:50;101813.84;;;3.07;75.48
65718;BME280;52445;52.466;-1.016;2024-01-27T03:48:18;101800.50;;;3.13;74.60
65718;BME280;52445;52.466;-1.016;2024-01-27T03:50:45;101800.69;;;3.16;75.28
65718;BME280;52445;52.466;-1.016;2024-01-27T03:53:13;101799.97;;;3.19;75.16
65718;BME280;52445;52.466;-1.016;2024-01-27T03:55:40;101786.19;;;3.17;75.56
65718;BME280;52445;52.466;-1.016;2024-01-27T03:58:07;101788.28;;;3.24;75.16
65718;BME280;52445;52.466;-1.016;2024-01-27T04:00:33;101788.28;;;3.24;75.05
65718;BME280;52445;52.466;-1.016;2024-01-27T04:03:02;101784.88;;;3.24;74.27
65718;BME280;52445;52.466;-1.016;2024-01-27T04:05:29;101781.41;;;3.23;75.07
65718;BME280;52445;52.466;-1.016;2024-01-27T04:07:56;101776.13;;;3.20;74.50
65718;BME280;52445;52.466;-1.016;2024-01-27T04:10:23;101795.03;;;3.22;74.55
65718;BME280;52445;52.466;-1.016;2024-01-27T04:12:50;101788.75;;;3.17;75.37
65718;BME280;52445;52.466;-1.016;2024-01-27T04:15:17;101784.59;;;3.19;75.38
65718;BME280;52445;52.466;-1.016;2024-01-27T04:17:43;101777.72;;;3.18;74.99
65718;BME280;52445;52.466;-1.016;2024-01-27T04:20:10;101772.41;;;3.15;75.53
65718;BME280;52445;52.466;-1.016;2024-01-27T04:22:39;101781.06;;;3.17;74.79
65718;BME280;52445;52.466;-1.016;2024-01-27T04:25:06;101779.31;;;3.16;75.48
65718;BME280;52445;52.466;-1.016;2024-01-27T04:27:38;101780.09;;;3.15;74.29
65718;BME280;52445;52.466;-1.016;2024-01-27T04:30:07;101782.50;;;3.12;75.26
65718;BME280;52445;52.466;-1.016;2024-01-27T04:32:35;101792.63;;;3.10;74.39
65718;BME280;52445;52.466;-1.016;2024-01-27T04:35:02;101801.94;;;3.08;74.49
65718;BME280;52445;52.466;-1.016;2024-01-27T04:37:31;101796.63;;;3.05;75.51
65718;BME280;52445;52.466;-1.016;2024-01-27T04:39:57;101786.38;;;3.05;75.12
65718;BME280;52445;52.466;-1.016;2024-01-27T04:42:24;101776.16;;;3.05;75.17
65718;BME280;52445;52.466;-1.016;2024-01-27T04:44:51;101763.97;;;3.01;74.95
65718;BME280;52445;52.466;-1.016;2024-01-27T04:47:18;101760.59;;;3.02;74.60
65718;BME280;52445;52.466;-1.016;2024-01-27T04:49:45;101754.44;;;2.98;75.26
65718;BME280;52445;52.466;-1.016;2024-01-27T04:52:12;101752.66;;;2.97;74.39
65718;BME280;52445;52.466;-1.016;2024-01-27T04:54:39;101753.28;;;2.93;74.89
65718;BME280;52445;52.466;-1.016;2024-01-27T04:57:06;101767.69;;;2.91;75.01
65718;BME280;52445;52.466;-1.016;2024-01-27T04:59:33;101771.06;;;2.90;75.02
65718;BME280;52445;52.466;-1.016;2024-01-27T05:01:59;101774.22;;;2.86;74.53
65718;BME280;52445;52.466;-1.016;2024-01-27T05:04:26;101773.34;;;2.85;74.12
65718;BME280;52445;52.466;-1.016;2024-01-27T05:06:53;101765.59;;;2.83;74.52
65718;BME280;52445;52.466;-1.016;2024-01-27T05:09:21;101777.41;;;2.81;74.16
65718;BME280;52445;52.466;-1.016;2024-01-27T05:11:48;101780.66;;;2.79;74.27
65718;BME280;52445;52.466;-1.016;2024-01-27T05:14:18;101775.44;;;2.77;74.60
65718;BME280;52445;52.466;-1.016;2024-01-27T05:16:44;101764.19;;;2.74;74.82
65718;BME280;52445;52.466;-1.016;2024-01-27T05:19:11;101761.53;;;2.72;74.20
65718;BME280;52445;52.466;-1.016;2024-01-27T05:21:38;101761.34;;;2.69;75.03
65718;BME280;52445;52.466;-1.016;2024-01-27T05:24:05;101753.56;;;2.67;74.79
65718;BME280;52445;52.466;-1.016;2024-01-27T05:26:31;101768.06;;;2.67;75.19
65718;BME280;52445;52.466;-1.016;2024-01-27T05:28:58;101778.13;;;2.64;75.01
65718;BME280;52445;52.466;-1.016;2024-01-27T05:31:26;101767.00;;;2.63;75.17
65718;BME280;52445;52.466;-1.016;2024-01-27T05:33:53;101758.44;;;2.63;75.20
65718;BME280;52445;52.466;-1.016;2024-01-27T05:36:20;101750.59;;;2.60;74.99
65718;BME280;52445;52.466;-1.016;2024-01-27T05:38:46;101742.03;;;2.59;74.46
65718;BME280;52445;52.466;-1.016;2024-01-27T05:41:14;101734.34;;;2.59;74.16
65718;BME280;52445;52.466;-1.016;2024-01-27T05:43:42;101736.81;;;2.57;74.70
65718;BME280;52445;52.466;-1.016;2024-01-27T05:46:09;101741.75;;;2.54;74.68
65718;BME280;52445;52.466;-1.016;2024-01-27T05:48:36;101745.13;;;2.53;74.81
65718;BME280;52445;52.466;-1.016;2024-01-27T05:51:03;101743.34;;;2.52;75.32
65718;BME280;52445;52.466;-1.016;2024-01-27T05:53:30;101746.88;;;2.54;74.97
65718;BME280;52445;52.466;-1.016;2024-01-27T05:55:57;101746.09;;;2.55;74.20
65718;BME280;52445;52.466;-1.016;2024-01-27T05:58:24;101753.06;;;2.58;74.32
65718;BME280;52445;52.466;-1.016;2024-01-27T06:00:50;101757.28;;;2.57;75.06
65718;BME280;52445;52.466;-1.016;2024-01-27T06:03:17;101764.16;;;2.59;74.58
65718;BME280;52445;52.466;-1.016;2024-01-27T06:05:44;101766.81;;;2.60;74.96
65718;BME280;52445;52.466;-1.016;2024-01-27T06:08:11;101760.91;;;2.61;74.59
65718;BME280;52445;52.466;-1.016;2024-01-27T06:10:38;101759.22;;;2.62;74.22
65718;BME280;52445;52.466;-1.016;2024-01-27T06:13:08;101758.50;;;2.64;74.59
65718;BME280;52445;52.466;-1.016;2024-01-27T06:15:34;101759.41;;;2.65;74.35
65718;BME280;52445;52.466;-1.016;2024-01-27T06:18:01;101752.53;;;2.64;74.31
65718;BME280;52445;52.466;-1.016;2024-01-27T06:20:28;101749.16;;;2.65;75.39
65718;BME280;52445;52.466;-1.016;2024-01-27T06:22:55;101761.88;;;2.63;74.45
65718;BME280;52445;52.466;-1.016;2024-01-27T06:25:22;101761.88;;;2.63;75.20
65718;BME280;52445;52.466;-1.016;2024-01-27T06:27:48;101752.44;;;2.62;74.99
65718;BME280;52445;52.466;-1.016;2024-01-27T06:30:15;101761.00;;;2.63;74.61
65718;BME280;52445;52.466;-1.016;2024-01-27T06:32:42;101767.69;;;2.61;75.15
65718;BME280;52445;52.466;-1.016;2024-01-27T06:35:09;101767.69;;;2.61;74.87
65718;BME280;52445;52.466;-1.016;2024-01-27T06:37:36;101757.28;;;2.57;74.83
65718;BME280;52445;52.466;-1.016;2024-01-27T06:40:04;101758.88;;;2.55;74.25
65718;BME280;52445;52.466;-1.016;2024-01-27T06:42:32;101753.59;;;2.52;74.07
65718;BME280;52445;52.466;-1.016;2024-01-27T06:44:59;101757.63;;;2.49;74.75
65718;BME280;52445;52.466;-1.016;2024-01-27T06:47:26;101753.22;;;2.46;75.01
65718;BME280;52445;52.466;-1.016;2024-01-27T06:49:52;101743.69;;;2.43;74.43
65718;BME280;52445;52.466;-1.016;2024-01-27T06:52:19;101750.41;;;2.41;74.36
65718;BME280;52445;52.466;-1.016;2024-01-27T06:54:46;101746.88;;;2.39;74.19
65718;BME280;52445;52.466;-1.016;2024-01-27T06:57:20;101744.03;;;2.35;74.79
65718;BME280;52445;52.466;-1.016;2024-01-27T06:59:47;101741.38;;;2.33;73.78
65718;BME280;52445;52.466;-1.016;2024-01-27T07:02:22;101742.09;;;2.30;74.51
65718;BME280;52445;52.466;-1.016;2024-01-27T07:04:49;101752.31;;;2.30;74.90
65718;BME280;52445;52.466;-1.016;2024-01-27T07:07:16;101762.38;;;2.27;74.81
65718;BME280;52445;52.466;-1.016;2024-01-27T07:09:43;101770.84;;;2.26;74.48
65718;BME280;52445;52.466;-1.016;2024-01-27T07:12:10;101765.72;;;2.26;74.66
65718;BME280;52445;52.466;-1.016;2024-01-27T07:14:37;101759.75;;;2.26;74.50
65718;BME280;52445;52.466;-1.016;2024-01-27T07:17:04;101759.75;;;2.26;74.64
65718;BME280;52445;52.466;-1.016;2024-01-27T07:19:31;101763.97;;;2.25;74.59
65718;BME280;52445;52.466;-1.016;2024-01-27T07:21:58;101768.09;;;2.23;74.03
65718;BME280;52445;52.466;-1.016;2024-01-27T07:24:26;101760.44;;;2.23;74.08
65718;BME280;52445;52.466;-1.016;2024-01-27T07:26:53;101756.91;;;2.21;75.27
65718;BME280;52445;52.466;-1.016;2024-01-27T07:29:22;101758.66;;;2.22;75.04
65718;BME280;52445;52.466;-1.016;2024-01-27T07:31:49;101763.78;;;2.22;74.28
65718;BME280;52445;52.466;-1.016;2024-01-27T07:34:16;101762.88;;;2.22;74.35
65718;BME280;52445;52.466;-1.016;2024-01-27T07:36:44;101765.53;;;2.23;74.55
65718;BME280;52445;52.466;-1.016;2024-01-27T07:39:12;101767.13;;;2.21;74.20
65718;BME280;52445;52.466;-1.016;2024-01-27T07:41:38;101764.50;;;2.20;75.19
65718;BME280;52445;52.466;-1.016;2024-01-27T07:44:07;101780.72;;;2.20;74.14
65718;BME280;52445;52.466;-1.016;2024-01-27T07:46:35;101767.94;;;2.20;75.27
65718;BME280;52445;52.466;-1.016;2024-01-27T07:49:02;101766.25;;;2.21;74.42
65718;BME280;52445;52.466;-1.016;2024-01-27T07:51:30;101770.50;;;2.20;75.33
65718;BME280;52445;52.466;-1.016;2024-01-27T07:53:57;101768.00;;;2.22;75.23
65718;BME280;52445;52.466;-1.016;2024-01-27T07:56:24;101763.78;;;2.22;74.39
65718;BME280;52445;52.466;-1.016;2024-01-27T07:58:51;101762.22;;;2.24;73.80
65718;BME280;52445;52.466;-1.016;2024-01-27T08:01:18;101763.97;;;2.25;75.14
65718;BME280;52445;52.466;-1.016;2024-01-27T08:03:45;101768.19;;;2.25;74.93
65718;BME280;52445;52.466;-1.016;2024-01-27T08:06:17;101775.00;;;2.24;74.33
65718;BME280;52445;52.466;-1.016;2024-01-27T08:08:46;101772.44;;;2.24;74.19
65718;BME280;52445;52.466;-1.016;2024-01-27T08:11:14;101767.41;;;2.26;73.96
65718;BME280;52445;52.466;-1.016;2024-01-27T08:13:42;101764.16;;;2.28;74.24
65718;BME280;52445;52.466;-1.016;2024-01-27T08:16:09;101764.34;;;2.31;74.20
65718;BME280;52445;52.466;-1.016;2024-01-27T08:18:39;101773.88;;;2.34;74.10
65718;BME280;52445;52.466;-1.016;2024-01-27T08:21:06;101779.31;;;2.40;74.14
65718;BME280;52445;52.466;-1.016;2024-01-27T08:23:32;101773.88;;;2.49;74.26
65718;BME280;52445;52.466;-1.016;2024-01-27T08:26:00;101784.47;;;2.55;74.45
65718;BME280;52445;52.466;-1.016;2024-01-27T08:28:27;101779.69;;;2.62;74.43
65718;BME280;52445;52.466;-1.016;2024-01-27T08:30:54;101791.72;;;2.63;74.17
65718;BME280;52445;52.466;-1.016;2024-01-27T08:33:21;101786.75;;;2.66;73.90
65718;BME280;52445;52.466;-1.016;2024-01-27T08:35:49;101788.88;;;2.73;74.35
65718;BME280;52445;52.466;-1.016;2024-01-27T08:38:18;101789.16;;;2.78;73.53
65718;BME280;52445;52.466;-1.016;2024-01-27T08:40:44;101789.56;;;2.86;73.39
65718;BME280;52445;52.466;-1.016;2024-01-27T08:43:11;101782.06;;;2.89;73.60
65718;BME280;52445;52.466;-1.016;2024-01-27T08:45:38;101783.91;;;2.91;73.77
65718;BME280;52445;52.466;-1.016;2024-01-27T08:48:06;101776.31;;;2.93;73.38
65718;BME280;52445;52.466;-1.016;2024-01-27T08:50:33;101769.63;;;2.95;74.01
65718;BME280;52445;52.466;-1.016;2024-01-27T08:52:59;101775.78;;;2.99;73.30
65718;BME280;52445;52.466;-1.016;2024-01-27T08:55:26;101776.94;;;3.04;73.44
65718;BME280;52445;52.466;-1.016;2024-01-27T08:57:56;101778.97;;;3.10;74.19
65718;BME280;52445;52.466;-1.016;2024-01-27T09:00:22;101783.63;;;3.17;73.38
65718;BME280;52445;52.466;-1.016;2024-01-27T09:02:51;101785.72;;;3.24;73.22
65718;BME280;52445;52.466;-1.016;2024-01-27T09:05:18;101801.34;;;3.29;73.50
65718;BME280;52445;52.466;-1.016;2024-01-27T09:07:45;101798.06;;;3.31;73.27
65718;BME280;52445;52.466;-1.016;2024-01-27T09:10:12;101802.75;;;3.39;73.74
65718;BME280;52445;52.466;-1.016;2024-01-27T09:12:43;101813.16;;;3.42;73.57
65718;BME280;52445;52.466;-1.016;2024-01-27T09:15:12;101811.72;;;3.47;73.64
65718;BME280;52445;52.466;-1.016;2024-01-27T09:17:39;101802.63;;;3.52;73.91
65718;BME280;52445;52.466;-1.016;2024-01-27T09:20:06;101803.75;;;3.57;73.06
65718;BME280;52445;52.466;-1.016;2024-01-27T09:22:33;101812.56;;;3.63;73.63
65718;BME280;52445;52.466;-1.016;2024-01-27T09:25:00;101826.69;;;3.71;73.59
65718;BME280;52445;52.466;-1.016;2024-01-27T09:27:27;101822.06;;;3.80;73.22
65718;BME280;52445;52.466;-1.016;2024-01-27T09:29:53;101824.47;;;3.94;73.51
65718;BME280;52445;52.466;-1.016;2024-01-27T09:32:20;101827.06;;;4.10;73.39
65718;BME280;52445;52.466;-1.016;2024-01-27T09:34:47;101826.25;;;4.28;72.91
65718;BME280;52445;52.466;-1.016;2024-01-27T09:37:14;101823.66;;;4.45;72.72
65718;BME280;52445;52.466;-1.016;2024-01-27T09:39:41;101823.16;;;4.69;72.37
65718;BME280;52445;52.466;-1.016;2024-01-27T09:42:13;101819.66;;;5.03;73.22
65718;BME280;52445;52.466;-1.016;2024-01-27T09:44:43;101820.41;;;5.55;72.91
65718;BME280;52445;52.466;-1.016;2024-01-27T09:47:11;101818.22;;;6.21;73.46
65718;BME280;52445;52.466;-1.016;2024-01-27T09:49:39;101815.13;;;6.71;71.45
65718;BME280;52445;52.466;-1.016;2024-01-27T09:52:08;101821.13;;;7.12;70.73
65718;BME280;52445;52.466;-1.016;2024-01-27T09:54:36;101827.34;;;7.40;71.14
65718;BME280;52445;52.466;-1.016;2024-01-27T09:57:04;101827.03;;;7.54;70.51
65718;BME280;52445;52.466;-1.016;2024-01-27T09:59:33;101831.75;;;7.66;69.96
65718;BME280;52445;52.466;-1.016;2024-01-27T10:02:03;101833.22;;;7.82;68.92
65718;BME280;52445;52.466;-1.016;2024-01-27T10:04:32;101838.50;;;7.85;69.14
65718;BME280;52445;52.466;-1.016;2024-01-27T10:06:59;101830.31;;;7.95;68.55
65718;BME280;52445;52.466;-1.016;2024-01-27T10:09:27;101839.63;;;8.16;68.91
65718;BME280;52445;52.466;-1.016;2024-01-27T10:11:55;101839.84;;;8.47;68.71
65718;BME280;52445;52.466;-1.016;2024-01-27T10:14:23;101839.16;;;8.77;68.54
65718;BME280;52445;52.466;-1.016;2024-01-27T10:16:50;101839.13;;;9.02;67.47
65718;BME280;52445;52.466;-1.016;2024-01-27T10:19:18;101820.50;;;9.12;67.09
65718;BME280;52445;52.466;-1.016;2024-01-27T10:21:46;101827.41;;;9.13;66.85
65718;BME280;52445;52.466;-1.016;2024-01-27T10:24:14;101822.34;;;9.16;66.53
65718;BME280;52445;52.466;-1.016;2024-01-27T10:26:40;101825.16;;;9.24;65.89
65718;BME280;52445;52.466;-1.016;2024-01-27T10:29:08;101825.25;;;9.27;65.92
65718;BME280;52445;52.466;-1.016;2024-01-27T10:31:36;101827.69;;;9.22;65.53
65718;BME280;52445;52.466;-1.016;2024-01-27T10:34:03;101827.31;;;9.10;65.00
65718;BME280;52445;52.466;-1.016;2024-01-27T10:36:47;101814.72;;;8.93;65.02
65718;BME280;52445;52.466;-1.016;2024-01-27T10:39:22;101822.28;;;8.87;65.76
65718;BME280;52445;52.466;-1.016;2024-01-27T10:41:51;101822.69;;;8.73;65.85
65718;BME280;52445;52.466;-1.016;2024-01-27T10:44:20;101815.34;;;8.60;65.55
65718;BME280;52445;52.466;-1.016;2024-01-27T10:46:48;101805.41;;;8.46;65.42
65718;BME280;52445;52.466;-1.016;2024-01-27T10:49:16;101803.28;;;8.34;66.03
65718;BME280;52445;52.466;-1.016;2024-01-27T10:52:01;101798.47;;;8.19;65.35
65718;BME280;52445;52.466;-1.016;2024-01-27T10:54:33;101786.16;;;8.12;65.18
65718;BME280;52445;52.466;-1.016;2024-01-27T10:57:01;101779.97;;;8.08;66.52
65718;BME280;52445;52.466;-1.016;2024-01-27T10:59:30;101773.69;;;8.00;66.48
65718;BME280;52445;52.466;-1.016;2024-01-27T11:01:58;101773.47;;;7.94;65.64
65718;BME280;52445;52.466;-1.016;2024-01-27T11:04:25;101774.84;;;7.84;65.85
65718;BME280;52445;52.466;-1.016;2024-01-27T11:06:55;101769.69;;;7.84;66.69
65718;BME280;52445;52.466;-1.016;2024-01-27T11:09:24;101776.59;;;7.85;65.35
65718;BME280;52445;52.466;-1.016;2024-01-27T11:11:51;101770.84;;;7.92;66.49
65718;BME280;52445;52.466;-1.016;2024-01-27T11:14:18;101767.72;;;8.01;66.50
65718;BME280;52445;52.466;-1.016;2024-01-27T11:16:45;101763.75;;;8.11;65.97
65718;BME280;52445;52.466;-1.016;2024-01-27T11:19:17;101776.84;;;8.17;66.27
65718;BME280;52445;52.466;-1.016;2024-01-27T11:21:43;101779.66;;;8.23;66.76
65718;BME280;52445;52.466;-1.016;2024-01-27T11:24:15;101773.94;;;8.32;66.69
65718;BME280;52445;52.466;-1.016;2024-01-27T11:26:42;101769.97;;;8.42;66.33
65718;BME280;52445;52.466;-1.016;2024-01-27T11:29:09;101771.13;;;8.51;67.04
65718;BME280;52445;52.466;-1.016;2024-01-27T11:31:45;101775.69;;;8.58;66.28
65718;BME280;52445;52.466;-1.016;2024-01-27T11:34:12;101776.88;;;8.68;66.58
65718;BME280;52445;52.466;-1.016;2024-01-27T11:36:39;101778.06;;;8.78;66.31
65718;BME280;52445;52.466;-1.016;2024-01-27T11:39:23;101773.00;;;8.81;65.65
65718;BME280;52445;52.466;-1.016;2024-01-27T11:41:51;101777.44;;;8.85;65.77
65718;BME280;52445;52.466;-1.016;2024-01-27T11:44:19;101776.50;;;8.83;64.59
65718;BME280;52445;52.466;-1.016;2024-01-27T11:46:46;101779.81;;;8.79;64.83
65718;BME280;52445;52.466;-1.016;2024-01-27T11:49:15;101769.47;;;8.79;64.57
65718;BME280;52445;52.466;-1.016;2024-01-27T11:51:43;101767.72;;;8.78;65.04
65718;BME280;52445;52.466;-1.016;2024-01-27T11:54:10;101770.97;;;8.72;65.58
65718;BME280;52445;52.466;-1.016;2024-01-27T11:56:39;101770.97;;;8.72;65.96
65718;BME280;52445;52.466;-1.016;2024-01-27T11:59:14;101756.22;;;8.68;65.05
65718;BME280;52445;52.466;-1.016;2024-01-27T12:01:41;101755.25;;;8.66;64.85
65718;BME280;52445;52.466;-1.016;2024-01-27T12:04:09;101743.88;;;8.59;64.75
65718;BME280;52445;52.466;-1.016;2024-01-27T12:06:36;101747.88;;;8.51;64.82
65718;BME280;52445;52.466;-1.016;2024-01-27T12:09:03;101742.59;;;8.47;65.21
65718;BME280;52445;52.466;-1.016;2024-01-27T12:11:30;101739.06;;;8.45;65.43
65718;BME280;52445;52.466;-1.016;2024-01-27T12:13:57;101737.31;;;8.44;65.54
65718;BME280;52445;52.466;-1.016;2024-01-27T12:16:24;101733.91;;;8.45;65.90
65718;BME280;52445;52.466;-1.016;2024-01-27T12:18:52;101731.38;;;8.47;65.15
65718;BME280;52445;52.466;-1.016;2024-01-27T12:21:23;101731.53;;;8.52;65.86
65718;BME280;52445;52.466;-1.016;2024-01-27T12:23:52;101737.69;;;8.54;65.23
65718;BME280;52445;52.466;-1.016;2024-01-27T12:26:21;101726.75;;;8.63;65.81
65718;BME280;52445;52.466;-1.016;2024-01-27T12:28:50;101722.53;;;8.65;65.40
65718;BME280;52445;52.466;-1.016;2024-01-27T12:31:18;101712.88;;;8.59;65.50
65718;BME280;52445;52.466;-1.016;2024-01-27T12:33:56;101700.88;;;8.61;64.94
65718;BME280;52445;52.466;-1.016;2024-01-27T12:36:26;101695.38;;;8.52;65.01
65718;BME280;52445;52.466;-1.016;2024-01-27T12:39:02;101690.31;;;8.53;65.38
65718;BME280;52445;52.466;-1.016;2024-01-27T12:41:31;101679.06;;;8.53;65.49
65718;BME280;52445;52.466;-1.016;2024-01-27T12:44:00;101673.19;;;8.57;65.08
65718;BME280;52445;52.466;-1.016;2024-01-27T12:46:28;101663.78;;;8.59;65.76
65718;BME280;52445;52.466;-1.016;2024-01-27T12:48:55;101663.91;;;8.62;65.31
65718;BME280;52445;52.466;-1.016;2024-01-27T12:51:22;101657.06;;;8.64;65.84